sensor_id;sensor_type;location;lat;lon;timestamp;P1;durP1;ratioP1;P2;durP2;ratioP2
47365;SDS011;33105;47.964;7.982;2022-07-23T00:00:21;9.68;;;6.28;;
47365;SDS011;33105;47.964;7.982;2022-07-23T00:03:22;8.52;;;6.15;;
47365;SDS011;33105;47.964;7.982;2022-07-23T00:06:24;10.73;;;6.80;;
47365;SDS011;33105;47.964;7.982;2022-07-23T00:09:25;7.78;;;6.30;;
47365;SDS011;33105;47.964;7.982;2022-07-23T00:12:27;9.23;;;6.72;;
47365;SDS011;33105;47.964;7.982;2022-07-23T00:15:28;10.65;;;6.47;;
47365;SDS011;33105;47.964;7.982;2022-07-23T00:18:29;8.68;;;5.63;;
47365;SDS011;33105;47.964;7.982;2022-07-23T00:21:30;8.20;;;5.97;;
47365;SDS011;33105;47.964;7.982;2022-07-23T00:24:31;6.43;;;5.63;;
47365;SDS011;33105;47.964;7.982;2022-07-23T00:27:33;9.60;;;6.20;;
47365;SDS011;33105;47.964;7.982;2022-07-23T00:30:34;7.43;;;5.70;;
47365;SDS011;33105;47.964;7.982;2022-07-23T00:33:35;8.82;;;5.72;;
47365;SDS011;33105;47.964;7.982;2022-07-23T00:36:36;9.35;;;6.07;;
47365;SDS011;33105;47.964;7.982;2022-07-23T00:39:37;7.05;;;5.85;;
47365;SDS011;33105;47.964;7.982;2022-07-23T00:42:39;9.02;;;5.85;;
47365;SDS011;33105;47.964;7.982;2022-07-23T00:45:40;8.73;;;6.30;;
47365;SDS011;33105;47.964;7.982;2022-07-23T00:48:41;14.00;;;7.30;;
47365;SDS011;33105;47.964;7.982;2022-07-23T00:51:43;9.93;;;6.90;;
47365;SDS011;33105;47.964;7.982;2022-07-23T00:54:44;10.25;;;6.88;;
47365;SDS011;33105;47.964;7.982;2022-07-23T00:57:45;9.20;;;6.68;;
47365;SDS011;33105;47.964;7.982;2022-07-23T01:00:47;7.50;;;6.72;;
47365;SDS011;33105;47.964;7.982;2022-07-23T01:03:48;9.50;;;6.93;;
47365;SDS011;33105;47.964;7.982;2022-07-23T01:06:49;8.43;;;7.20;;
47365;SDS011;33105;47.964;7.982;2022-07-23T01:09:51;10.60;;;7.78;;
47365;SDS011;33105;47.964;7.982;2022-07-23T01:12:53;8.80;;;7.85;;
47365;SDS011;33105;47.964;7.982;2022-07-23T01:15:54;8.35;;;7.53;;
47365;SDS011;33105;47.964;7.982;2022-07-23T01:18:55;10.23;;;7.70;;
47365;SDS011;33105;47.964;7.982;2022-07-23T01:21:57;9.60;;;7.90;;
47365;SDS011;33105;47.964;7.982;2022-07-23T01:25:02;10.05;;;8.32;;
47365;SDS011;33105;47.964;7.982;2022-07-23T01:28:03;8.45;;;7.28;;
47365;SDS011;33105;47.964;7.982;2022-07-23T01:31:04;11.60;;;6.22;;
47365;SDS011;33105;47.964;7.982;2022-07-23T01:34:09;7.95;;;7.07;;
47365;SDS011;33105;47.964;7.982;2022-07-23T01:37:10;10.23;;;6.53;;
47365;SDS011;33105;47.964;7.982;2022-07-23T01:40:12;10.30;;;6.68;;
47365;SDS011;33105;47.964;7.982;2022-07-23T01:43:13;8.20;;;6.47;;
47365;SDS011;33105;47.964;7.982;2022-07-23T01:46:15;9.20;;;6.95;;
47365;SDS011;33105;47.964;7.982;2022-07-23T01:49:20;10.93;;;6.60;;
47365;SDS011;33105;47.964;7.982;2022-07-23T01:52:40;8.45;;;5.88;;
47365;SDS011;33105;47.964;7.982;2022-07-23T01:55:41;8.55;;;6.43;;
47365;SDS011;33105;47.964;7.982;2022-07-23T01:58:43;8.90;;;6.03;;
47365;SDS011;33105;47.964;7.982;2022-07-23T02:01:45;8.38;;;6.78;;
47365;SDS011;33105;47.964;7.982;2022-07-23T02:04:46;8.18;;;6.25;;
47365;SDS011;33105;47.964;7.982;2022-07-23T02:07:47;8.25;;;6.60;;
47365;SDS011;33105;47.964;7.982;2022-07-23T02:10:48;7.13;;;6.03;;
47365;SDS011;33105;47.964;7.982;2022-07-23T02:13:51;7.32;;;6.60;;
47365;SDS011;33105;47.964;7.982;2022-07-23T02:16:53;7.13;;;6.03;;
47365;SDS011;33105;47.964;7.982;2022-07-23T02:19:54;8.80;;;5.82;;
47365;SDS011;33105;47.964;7.982;2022-07-23T02:22:56;7.50;;;5.97;;
47365;SDS011;33105;47.964;7.982;2022-07-23T02:25:57;6.85;;;6.03;;
47365;SDS011;33105;47.964;7.982;2022-07-23T02:28:59;6.60;;;5.90;;
47365;SDS011;33105;47.964;7.982;2022-07-23T02:32:00;6.07;;;5.00;;
47365;SDS011;33105;47.964;7.982;2022-07-23T02:35:02;9.10;;;5.15;;
47365;SDS011;33105;47.964;7.982;2022-07-23T02:38:03;5.07;;;4.40;;
47365;SDS011;33105;47.964;7.982;2022-07-23T02:41:06;6.47;;;4.70;;
47365;SDS011;33105;47.964;7.982;2022-07-23T02:44:07;4.80;;;4.25;;
47365;SDS011;33105;47.964;7.982;2022-07-23T02:47:09;7.22;;;6.05;;
47365;SDS011;33105;47.964;7.982;2022-07-23T02:50:10;6.80;;;6.00;;
47365;SDS011;33105;47.964;7.982;2022-07-23T02:53:13;7.70;;;5.75;;
47365;SDS011;33105;47.964;7.982;2022-07-23T02:56:15;7.32;;;6.25;;
47365;SDS011;33105;47.964;7.982;2022-07-23T02:59:17;7.97;;;5.90;;
47365;SDS011;33105;47.964;7.982;2022-07-23T03:02:18;7.22;;;5.78;;
47365;SDS011;33105;47.964;7.982;2022-07-23T03:05:20;10.93;;;6.55;;
47365;SDS011;33105;47.964;7.982;2022-07-23T03:08:21;9.27;;;6.53;;
47365;SDS011;33105;47.964;7.982;2022-07-23T03:11:25;8.43;;;6.38;;
47365;SDS011;33105;47.964;7.982;2022-07-23T03:14:27;7.38;;;6.32;;
47365;SDS011;33105;47.964;7.982;2022-07-23T03:17:29;7.72;;;6.30;;
47365;SDS011;33105;47.964;7.982;2022-07-23T03:20:30;12.10;;;6.32;;
47365;SDS011;33105;47.964;7.982;2022-07-23T03:23:31;7.57;;;6.80;;
47365;SDS011;33105;47.964;7.982;2022-07-23T03:26:33;10.55;;;6.72;;
47365;SDS011;33105;47.964;7.982;2022-07-23T03:29:34;9.73;;;6.60;;
47365;SDS011;33105;47.964;7.982;2022-07-23T03:32:35;9.85;;;6.53;;
47365;SDS011;33105;47.964;7.982;2022-07-23T03:35:36;6.93;;;6.22;;
47365;SDS011;33105;47.964;7.982;2022-07-23T03:39:09;7.55;;;6.18;;
47365;SDS011;33105;47.964;7.982;2022-07-23T03:42:11;9.45;;;6.15;;
47365;SDS011;33105;47.964;7.982;2022-07-23T03:45:12;7.40;;;6.40;;
47365;SDS011;33105;47.964;7.982;2022-07-23T03:48:13;6.97;;;5.50;;
47365;SDS011;33105;47.964;7.982;2022-07-23T03:51:14;7.38;;;6.65;;
47365;SDS011;33105;47.964;7.982;2022-07-23T03:54:15;8.23;;;6.40;;
47365;SDS011;33105;47.964;7.982;2022-07-23T03:57:17;7.78;;;6.25;;
47365;SDS011;33105;47.964;7.982;2022-07-23T04:00:18;9.25;;;6.57;;
47365;SDS011;33105;47.964;7.982;2022-07-23T04:03:23;8.10;;;6.70;;
47365;SDS011;33105;47.964;7.982;2022-07-23T04:06:25;6.95;;;6.25;;
47365;SDS011;33105;47.964;7.982;2022-07-23T04:09:27;7.55;;;6.75;;
47365;SDS011;33105;47.964;7.982;2022-07-23T04:12:29;8.00;;;6.60;;
47365;SDS011;33105;47.964;7.982;2022-07-23T04:15:30;12.70;;;6.57;;
47365;SDS011;33105;47.964;7.982;2022-07-23T04:18:32;6.97;;;6.28;;
47365;SDS011;33105;47.964;7.982;2022-07-23T04:21:49;7.05;;;5.95;;
47365;SDS011;33105;47.964;7.982;2022-07-23T04:24:50;7.13;;;5.93;;
47365;SDS011;33105;47.964;7.982;2022-07-23T04:27:51;8.73;;;5.68;;
47365;SDS011;33105;47.964;7.982;2022-07-23T04:30:55;5.55;;;5.05;;
47365;SDS011;33105;47.964;7.982;2022-07-23T04:33:57;8.90;;;5.32;;
47365;SDS011;33105;47.964;7.982;2022-07-23T04:36:58;6.72;;;5.10;;
47365;SDS011;33105;47.964;7.982;2022-07-23T04:40:00;7.80;;;5.80;;
47365;SDS011;33105;47.964;7.982;2022-07-23T04:43:01;6.95;;;5.40;;
47365;SDS011;33105;47.964;7.982;2022-07-23T04:46:03;6.88;;;5.60;;
47365;SDS011;33105;47.964;7.982;2022-07-23T04:49:09;5.88;;;5.28;;
47365;SDS011;33105;47.964;7.982;2022-07-23T04:52:11;7.78;;;5.28;;
47365;SDS011;33105;47.964;7.982;2022-07-23T04:55:12;6.32;;;5.68;;
47365;SDS011;33105;47.964;7.982;2022-07-23T04:58:13;7.13;;;5.45;;
47365;SDS011;33105;47.964;7.982;2022-07-23T05:01:14;7.28;;;5.80;;
47365;SDS011;33105;47.964;7.982;2022-07-23T05:04:16;9.43;;;5.78;;
47365;SDS011;33105;47.964;7.982;2022-07-23T05:07:18;5.85;;;5.22;;
47365;SDS011;33105;47.964;7.982;2022-07-23T05:10:19;6.53;;;5.80;;
47365;SDS011;33105;47.964;7.982;2022-07-23T05:13:20;8.40;;;5.68;;
47365;SDS011;33105;47.964;7.982;2022-07-23T05:16:25;7.57;;;5.78;;
47365;SDS011;33105;47.964;7.982;2022-07-23T05:19:28;9.00;;;6.20;;
47365;SDS011;33105;47.964;7.982;2022-07-23T05:22:29;9.43;;;5.63;;
47365;SDS011;33105;47.964;7.982;2022-07-23T05:25:30;9.32;;;5.38;;
47365;SDS011;33105;47.964;7.982;2022-07-23T05:28:32;6.03;;;5.40;;
47365;SDS011;33105;47.964;7.982;2022-07-23T05:31:33;7.85;;;5.78;;
47365;SDS011;33105;47.964;7.982;2022-07-23T05:34:34;6.50;;;5.53;;
47365;SDS011;33105;47.964;7.982;2022-07-23T05:37:35;8.25;;;5.50;;
47365;SDS011;33105;47.964;7.982;2022-07-23T05:40:37;7.35;;;5.43;;
47365;SDS011;33105;47.964;7.982;2022-07-23T05:43:38;11.40;;;5.60;;
47365;SDS011;33105;47.964;7.982;2022-07-23T05:46:44;7.38;;;5.22;;
47365;SDS011;33105;47.964;7.982;2022-07-23T05:49:50;6.43;;;5.22;;
47365;SDS011;33105;47.964;7.982;2022-07-23T05:53:08;6.85;;;5.60;;
47365;SDS011;33105;47.964;7.982;2022-07-23T05:56:12;8.30;;;5.45;;
47365;SDS011;33105;47.964;7.982;2022-07-23T05:59:13;5.82;;;5.18;;
47365;SDS011;33105;47.964;7.982;2022-07-23T06:02:15;6.53;;;5.13;;
47365;SDS011;33105;47.964;7.982;2022-07-23T06:05:17;6.55;;;5.55;;
47365;SDS011;33105;47.964;7.982;2022-07-23T06:08:19;6.53;;;5.82;;
47365;SDS011;33105;47.964;7.982;2022-07-23T06:11:20;6.53;;;5.68;;
47365;SDS011;33105;47.964;7.982;2022-07-23T06:14:22;6.40;;;5.30;;
47365;SDS011;33105;47.964;7.982;2022-07-23T06:17:29;7.07;;;5.80;;
47365;SDS011;33105;47.964;7.982;2022-07-23T06:20:30;8.13;;;5.50;;
47365;SDS011;33105;47.964;7.982;2022-07-23T06:23:32;6.13;;;5.43;;
47365;SDS011;33105;47.964;7.982;2022-07-23T06:26:33;5.78;;;5.18;;
47365;SDS011;33105;47.964;7.982;2022-07-23T06:29:35;6.80;;;5.47;;
47365;SDS011;33105;47.964;7.982;2022-07-23T06:32:36;7.10;;;5.18;;
47365;SDS011;33105;47.964;7.982;2022-07-23T06:35:37;6.82;;;5.63;;
47365;SDS011;33105;47.964;7.982;2022-07-23T06:38:40;6.93;;;5.53;;
47365;SDS011;33105;47.964;7.982;2022-07-23T06:41:41;7.88;;;5.90;;
47365;SDS011;33105;47.964;7.982;2022-07-23T06:44:43;6.63;;;5.90;;
47365;SDS011;33105;47.964;7.982;2022-07-23T06:47:44;7.32;;;5.78;;
47365;SDS011;33105;47.964;7.982;2022-07-23T06:50:45;8.00;;;5.97;;
47365;SDS011;33105;47.964;7.982;2022-07-23T06:53:46;9.45;;;5.80;;
47365;SDS011;33105;47.964;7.982;2022-07-23T06:56:47;6.72;;;5.95;;
47365;SDS011;33105;47.964;7.982;2022-07-23T06:59:50;9.38;;;6.40;;
47365;SDS011;33105;47.964;7.982;2022-07-23T07:02:51;8.10;;;5.55;;
47365;SDS011;33105;47.964;7.982;2022-07-23T07:05:54;7.72;;;5.82;;
47365;SDS011;33105;47.964;7.982;2022-07-23T07:08:55;9.25;;;5.72;;
47365;SDS011;33105;47.964;7.982;2022-07-23T07:11:57;7.88;;;5.20;;
47365;SDS011;33105;47.964;7.982;2022-07-23T07:14:58;8.20;;;4.47;;
47365;SDS011;33105;47.964;7.982;2022-07-23T07:18:00;6.80;;;5.13;;
47365;SDS011;33105;47.964;7.982;2022-07-23T07:21:01;5.75;;;5.05;;
47365;SDS011;33105;47.964;7.982;2022-07-23T07:24:02;5.65;;;4.90;;
47365;SDS011;33105;47.964;7.982;2022-07-23T07:27:03;7.75;;;5.18;;
47365;SDS011;33105;47.964;7.982;2022-07-23T07:30:05;8.45;;;5.18;;
47365;SDS011;33105;47.964;7.982;2022-07-23T07:33:06;6.75;;;4.97;;
47365;SDS011;33105;47.964;7.982;2022-07-23T07:36:08;6.43;;;5.15;;
47365;SDS011;33105;47.964;7.982;2022-07-23T07:39:09;7.05;;;5.60;;
47365;SDS011;33105;47.964;7.982;2022-07-23T07:42:11;6.97;;;5.72;;
47365;SDS011;33105;47.964;7.982;2022-07-23T07:45:12;13.27;;;5.75;;
47365;SDS011;33105;47.964;7.982;2022-07-23T07:48:13;7.47;;;5.20;;
47365;SDS011;33105;47.964;7.982;2022-07-23T07:51:14;6.35;;;5.50;;
47365;SDS011;33105;47.964;7.982;2022-07-23T07:54:15;6.25;;;5.65;;
47365;SDS011;33105;47.964;7.982;2022-07-23T07:57:17;8.10;;;5.80;;
47365;SDS011;33105;47.964;7.982;2022-07-23T08:00:18;7.10;;;5.60;;
47365;SDS011;33105;47.964;7.982;2022-07-23T08:03:19;7.18;;;5.57;;
47365;SDS011;33105;47.964;7.982;2022-07-23T08:06:20;6.85;;;6.15;;
47365;SDS011;33105;47.964;7.982;2022-07-23T08:09:21;8.15;;;5.60;;
47365;SDS011;33105;47.964;7.982;2022-07-23T08:12:22;7.50;;;6.15;;
47365;SDS011;33105;47.964;7.982;2022-07-23T08:15:24;9.40;;;6.43;;
47365;SDS011;33105;47.964;7.982;2022-07-23T08:18:27;12.27;;;6.30;;
47365;SDS011;33105;47.964;7.982;2022-07-23T08:21:28;9.07;;;6.30;;
47365;SDS011;33105;47.964;7.982;2022-07-23T08:24:29;10.07;;;6.85;;
47365;SDS011;33105;47.964;7.982;2022-07-23T08:27:30;7.32;;;6.63;;
47365;SDS011;33105;47.964;7.982;2022-07-23T08:30:32;11.60;;;6.68;;
47365;SDS011;33105;47.964;7.982;2022-07-23T08:33:34;11.77;;;6.68;;
47365;SDS011;33105;47.964;7.982;2022-07-23T08:36:35;11.55;;;6.65;;
47365;SDS011;33105;47.964;7.982;2022-07-23T08:39:37;8.95;;;6.57;;
47365;SDS011;33105;47.964;7.982;2022-07-23T08:42:38;7.22;;;6.22;;
47365;SDS011;33105;47.964;7.982;2022-07-23T08:45:40;10.23;;;6.38;;
47365;SDS011;33105;47.964;7.982;2022-07-23T08:48:43;8.40;;;6.53;;
47365;SDS011;33105;47.964;7.982;2022-07-23T08:51:48;9.35;;;6.50;;
47365;SDS011;33105;47.964;7.982;2022-07-23T08:54:49;6.32;;;5.68;;
47365;SDS011;33105;47.964;7.982;2022-07-23T08:57:51;8.13;;;6.18;;
47365;SDS011;33105;47.964;7.982;2022-07-23T09:00:53;7.32;;;6.15;;
47365;SDS011;33105;47.964;7.982;2022-07-23T09:03:56;8.90;;;6.22;;
47365;SDS011;33105;47.964;7.982;2022-07-23T09:06:58;6.95;;;5.90;;
47365;SDS011;33105;47.964;7.982;2022-07-23T09:10:09;6.63;;;5.20;;
47365;SDS011;33105;47.964;7.982;2022-07-23T09:16:39;5.13;;;4.63;;
47365;SDS011;33105;47.964;7.982;2022-07-23T09:19:41;7.78;;;5.05;;
47365;SDS011;33105;47.964;7.982;2022-07-23T09:22:44;6.82;;;5.28;;
47365;SDS011;33105;47.964;7.982;2022-07-23T09:25:46;5.72;;;5.00;;
47365;SDS011;33105;47.964;7.982;2022-07-23T09:28:55;9.45;;;5.15;;
47365;SDS011;33105;47.964;7.982;2022-07-23T09:32:00;5.82;;;4.72;;
47365;SDS011;33105;47.964;7.982;2022-07-23T09:35:03;6.25;;;4.85;;
47365;SDS011;33105;47.964;7.982;2022-07-23T09:38:04;7.05;;;4.78;;
47365;SDS011;33105;47.964;7.982;2022-07-23T09:41:08;7.07;;;5.28;;
47365;SDS011;33105;47.964;7.982;2022-07-23T09:44:12;6.40;;;4.65;;
47365;SDS011;33105;47.964;7.982;2022-07-23T09:47:17;6.80;;;5.22;;
47365;SDS011;33105;47.964;7.982;2022-07-23T09:50:19;12.07;;;5.60;;
47365;SDS011;33105;47.964;7.982;2022-07-23T09:53:24;9.70;;;4.97;;
47365;SDS011;33105;47.964;7.982;2022-07-23T09:56:27;8.68;;;5.43;;
47365;SDS011;33105;47.964;7.982;2022-07-23T09:59:30;7.07;;;5.35;;
47365;SDS011;33105;47.964;7.982;2022-07-23T10:02:34;8.10;;;5.75;;
47365;SDS011;33105;47.964;7.982;2022-07-23T10:05:59;9.55;;;5.50;;
47365;SDS011;33105;47.964;7.982;2022-07-23T10:09:23;8.27;;;5.55;;
47365;SDS011;33105;47.964;7.982;2022-07-23T10:12:47;6.10;;;5.50;;
47365;SDS011;33105;47.964;7.982;2022-07-23T10:16:02;5.82;;;4.85;;
47365;SDS011;33105;47.964;7.982;2022-07-23T10:19:03;9.38;;;5.15;;
47365;SDS011;33105;47.964;7.982;2022-07-23T10:22:10;6.63;;;5.28;;
47365;SDS011;33105;47.964;7.982;2022-07-23T10:25:27;8.20;;;5.20;;
47365;SDS011;33105;47.964;7.982;2022-07-23T10:32:02;8.48;;;5.93;;
47365;SDS011;33105;47.964;7.982;2022-07-23T10:35:26;8.93;;;5.43;;
47365;SDS011;33105;47.964;7.982;2022-07-23T10:41:48;6.28;;;5.68;;
47365;SDS011;33105;47.964;7.982;2022-07-23T10:44:50;11.07;;;5.80;;
47365;SDS011;33105;47.964;7.982;2022-07-23T10:47:51;8.80;;;5.38;;
47365;SDS011;33105;47.964;7.982;2022-07-23T10:51:06;6.40;;;5.60;;
47365;SDS011;33105;47.964;7.982;2022-07-23T10:54:20;10.25;;;5.82;;
47365;SDS011;33105;47.964;7.982;2022-07-23T10:57:24;6.72;;;5.28;;
47365;SDS011;33105;47.964;7.982;2022-07-23T11:00:27;10.13;;;5.88;;
47365;SDS011;33105;47.964;7.982;2022-07-23T11:09:49;9.43;;;5.95;;
47365;SDS011;33105;47.964;7.982;2022-07-23T11:12:50;7.05;;;5.70;;
47365;SDS011;33105;47.964;7.982;2022-07-23T11:19:03;7.15;;;5.63;;
47365;SDS011;33105;47.964;7.982;2022-07-23T11:22:05;7.55;;;5.45;;
47365;SDS011;33105;47.964;7.982;2022-07-23T11:25:07;7.22;;;5.05;;
47365;SDS011;33105;47.964;7.982;2022-07-23T11:28:09;6.93;;;5.70;;
47365;SDS011;33105;47.964;7.982;2022-07-23T11:31:18;7.32;;;5.22;;
47365;SDS011;33105;47.964;7.982;2022-07-23T11:37:47;8.25;;;6.18;;
47365;SDS011;33105;47.964;7.982;2022-07-23T11:40:53;9.23;;;5.65;;
47365;SDS011;33105;47.964;7.982;2022-07-23T11:43:58;7.57;;;5.22;;
47365;SDS011;33105;47.964;7.982;2022-07-23T11:47:00;8.07;;;5.57;;
47365;SDS011;33105;47.964;7.982;2022-07-23T11:50:03;9.70;;;5.68;;
47365;SDS011;33105;47.964;7.982;2022-07-23T11:53:07;6.65;;;5.65;;
47365;SDS011;33105;47.964;7.982;2022-07-23T11:56:09;6.53;;;5.05;;
47365;SDS011;33105;47.964;7.982;2022-07-23T11:59:11;5.88;;;5.28;;
47365;SDS011;33105;47.964;7.982;2022-07-23T12:02:13;6.43;;;5.00;;
47365;SDS011;33105;47.964;7.982;2022-07-23T12:05:16;7.60;;;5.20;;
47365;SDS011;33105;47.964;7.982;2022-07-23T12:08:21;6.55;;;5.53;;
47365;SDS011;33105;47.964;7.982;2022-07-23T12:11:23;8.98;;;5.60;;
47365;SDS011;33105;47.964;7.982;2022-07-23T12:14:24;7.43;;;5.95;;
47365;SDS011;33105;47.964;7.982;2022-07-23T12:17:29;9.25;;;5.38;;
47365;SDS011;33105;47.964;7.982;2022-07-23T12:20:36;8.50;;;5.45;;
47365;SDS011;33105;47.964;7.982;2022-07-23T12:23:40;9.75;;;5.75;;
47365;SDS011;33105;47.964;7.982;2022-07-23T12:26:59;9.85;;;5.15;;
47365;SDS011;33105;47.964;7.982;2022-07-23T12:30:54;7.97;;;5.43;;
47365;SDS011;33105;47.964;7.982;2022-07-23T12:33:40;6.43;;;5.72;;
47365;SDS011;33105;47.964;7.982;2022-07-23T12:36:42;7.13;;;5.40;;
47365;SDS011;33105;47.964;7.982;2022-07-23T12:39:44;5.20;;;4.70;;
47365;SDS011;33105;47.964;7.982;2022-07-23T12:42:46;5.60;;;5.03;;
47365;SDS011;33105;47.964;7.982;2022-07-23T12:46:09;10.15;;;5.88;;
47365;SDS011;33105;47.964;7.982;2022-07-23T12:49:27;8.30;;;5.30;;
47365;SDS011;33105;47.964;7.982;2022-07-23T12:52:28;6.93;;;5.53;;
47365;SDS011;33105;47.964;7.982;2022-07-23T12:55:30;7.30;;;5.07;;
47365;SDS011;33105;47.964;7.982;2022-07-23T13:01:43;6.20;;;4.75;;
47365;SDS011;33105;47.964;7.982;2022-07-23T13:04:49;7.63;;;4.90;;
47365;SDS011;33105;47.964;7.982;2022-07-23T13:07:50;6.07;;;4.65;;
47365;SDS011;33105;47.964;7.982;2022-07-23T13:10:52;7.57;;;5.00;;
47365;SDS011;33105;47.964;7.982;2022-07-23T13:13:54;6.53;;;5.38;;
47365;SDS011;33105;47.964;7.982;2022-07-23T13:16:55;7.20;;;5.10;;
47365;SDS011;33105;47.964;7.982;2022-07-23T13:19:56;7.15;;;5.25;;
47365;SDS011;33105;47.964;7.982;2022-07-23T13:22:57;6.53;;;5.15;;
47365;SDS011;33105;47.964;7.982;2022-07-23T13:25:59;5.57;;;5.05;;
47365;SDS011;33105;47.964;7.982;2022-07-23T13:29:00;5.57;;;5.07;;
47365;SDS011;33105;47.964;7.982;2022-07-23T13:32:01;5.18;;;4.60;;
47365;SDS011;33105;47.964;7.982;2022-07-23T13:35:03;5.55;;;4.63;;
47365;SDS011;33105;47.964;7.982;2022-07-23T13:38:05;6.13;;;4.80;;
47365;SDS011;33105;47.964;7.982;2022-07-23T13:41:10;6.25;;;4.80;;
47365;SDS011;33105;47.964;7.982;2022-07-23T13:44:11;8.30;;;5.38;;
47365;SDS011;33105;47.964;7.982;2022-07-23T13:47:12;5.78;;;4.78;;
47365;SDS011;33105;47.964;7.982;2022-07-23T13:50:13;8.32;;;4.75;;
47365;SDS011;33105;47.964;7.982;2022-07-23T13:53:18;7.55;;;5.00;;
47365;SDS011;33105;47.964;7.982;2022-07-23T13:56:20;5.70;;;4.60;;
47365;SDS011;33105;47.964;7.982;2022-07-23T13:59:22;10.13;;;5.03;;
47365;SDS011;33105;47.964;7.982;2022-07-23T14:02:23;5.70;;;4.78;;
47365;SDS011;33105;47.964;7.982;2022-07-23T14:05:25;6.20;;;4.90;;
47365;SDS011;33105;47.964;7.982;2022-07-23T14:08:27;6.50;;;4.88;;
47365;SDS011;33105;47.964;7.982;2022-07-23T14:11:28;6.50;;;5.22;;
47365;SDS011;33105;47.964;7.982;2022-07-23T14:14:31;7.28;;;5.25;;
47365;SDS011;33105;47.964;7.982;2022-07-23T14:17:32;5.28;;;4.78;;
47365;SDS011;33105;47.964;7.982;2022-07-23T14:20:33;9.05;;;5.32;;
47365;SDS011;33105;47.964;7.982;2022-07-23T14:23:35;7.75;;;4.60;;
47365;SDS011;33105;47.964;7.982;2022-07-23T14:26:36;8.43;;;4.90;;
47365;SDS011;33105;47.964;7.982;2022-07-23T14:29:37;5.75;;;4.80;;
47365;SDS011;33105;47.964;7.982;2022-07-23T14:32:39;8.80;;;5.00;;
47365;SDS011;33105;47.964;7.982;2022-07-23T14:35:40;10.32;;;4.93;;
47365;SDS011;33105;47.964;7.982;2022-07-23T14:38:41;7.65;;;4.95;;
47365;SDS011;33105;47.964;7.982;2022-07-23T14:41:42;7.45;;;5.00;;
47365;SDS011;33105;47.964;7.982;2022-07-23T14:44:44;5.88;;;4.88;;
47365;SDS011;33105;47.964;7.982;2022-07-23T14:47:46;6.38;;;5.13;;
47365;SDS011;33105;47.964;7.982;2022-07-23T14:50:47;8.32;;;5.32;;
47365;SDS011;33105;47.964;7.982;2022-07-23T14:53:48;5.15;;;4.47;;
47365;SDS011;33105;47.964;7.982;2022-07-23T14:56:50;6.32;;;5.05;;
47365;SDS011;33105;47.964;7.982;2022-07-23T14:59:51;7.65;;;5.40;;
47365;SDS011;33105;47.964;7.982;2022-07-23T15:02:52;5.53;;;5.03;;
47365;SDS011;33105;47.964;7.982;2022-07-23T15:05:54;6.20;;;5.00;;
47365;SDS011;33105;47.964;7.982;2022-07-23T15:08:55;8.48;;;4.95;;
47365;SDS011;33105;47.964;7.982;2022-07-23T15:11:56;6.13;;;5.10;;
47365;SDS011;33105;47.964;7.982;2022-07-23T15:14:58;5.90;;;4.80;;
47365;SDS011;33105;47.964;7.982;2022-07-23T15:17:59;8.68;;;5.05;;
47365;SDS011;33105;47.964;7.982;2022-07-23T15:21:00;6.35;;;5.10;;
47365;SDS011;33105;47.964;7.982;2022-07-23T15:24:02;6.85;;;5.25;;
47365;SDS011;33105;47.964;7.982;2022-07-23T15:27:04;7.47;;;5.47;;
47365;SDS011;33105;47.964;7.982;2022-07-23T15:30:05;6.93;;;5.22;;
47365;SDS011;33105;47.964;7.982;2022-07-23T15:33:07;9.18;;;5.28;;
47365;SDS011;33105;47.964;7.982;2022-07-23T15:36:08;7.10;;;4.70;;
47365;SDS011;33105;47.964;7.982;2022-07-23T15:39:10;6.88;;;4.85;;
47365;SDS011;33105;47.964;7.982;2022-07-23T15:42:11;7.53;;;5.15;;
47365;SDS011;33105;47.964;7.982;2022-07-23T15:45:12;8.95;;;5.57;;
47365;SDS011;33105;47.964;7.982;2022-07-23T15:48:14;8.68;;;5.20;;
47365;SDS011;33105;47.964;7.982;2022-07-23T15:51:15;8.27;;;4.95;;
47365;SDS011;33105;47.964;7.982;2022-07-23T15:54:16;7.50;;;4.90;;
47365;SDS011;33105;47.964;7.982;2022-07-23T15:57:18;7.00;;;5.53;;
47365;SDS011;33105;47.964;7.982;2022-07-23T16:00:19;9.20;;;4.68;;
47365;SDS011;33105;47.964;7.982;2022-07-23T16:03:20;7.43;;;5.38;;
47365;SDS011;33105;47.964;7.982;2022-07-23T16:06:21;7.88;;;5.07;;
47365;SDS011;33105;47.964;7.982;2022-07-23T16:09:23;6.38;;;4.82;;
47365;SDS011;33105;47.964;7.982;2022-07-23T16:12:24;5.47;;;4.97;;
47365;SDS011;33105;47.964;7.982;2022-07-23T16:15:25;7.35;;;5.03;;
47365;SDS011;33105;47.964;7.982;2022-07-23T16:18:27;6.47;;;5.25;;
47365;SDS011;33105;47.964;7.982;2022-07-23T16:21:30;6.78;;;4.97;;
47365;SDS011;33105;47.964;7.982;2022-07-23T16:24:32;5.20;;;4.72;;
47365;SDS011;33105;47.964;7.982;2022-07-23T16:27:34;6.07;;;5.15;;
47365;SDS011;33105;47.964;7.982;2022-07-23T16:30:38;8.55;;;5.05;;
47365;SDS011;33105;47.964;7.982;2022-07-23T16:33:40;8.25;;;5.22;;
47365;SDS011;33105;47.964;7.982;2022-07-23T16:36:41;5.25;;;4.75;;
47365;SDS011;33105;47.964;7.982;2022-07-23T16:39:42;5.43;;;4.93;;
47365;SDS011;33105;47.964;7.982;2022-07-23T16:42:44;5.97;;;5.03;;
47365;SDS011;33105;47.964;7.982;2022-07-23T16:45:45;6.90;;;5.38;;
47365;SDS011;33105;47.964;7.982;2022-07-23T16:48:46;7.82;;;5.30;;
47365;SDS011;33105;47.964;7.982;2022-07-23T16:51:48;5.22;;;4.68;;
47365;SDS011;33105;47.964;7.982;2022-07-23T16:54:49;11.27;;;5.38;;
47365;SDS011;33105;47.964;7.982;2022-07-23T16:57:50;6.32;;;4.88;;
47365;SDS011;33105;47.964;7.982;2022-07-23T17:00:51;6.38;;;4.65;;
47365;SDS011;33105;47.964;7.982;2022-07-23T17:03:52;5.93;;;4.78;;
47365;SDS011;33105;47.964;7.982;2022-07-23T17:06:54;8.60;;;4.80;;
47365;SDS011;33105;47.964;7.982;2022-07-23T17:09:55;5.95;;;4.68;;
47365;SDS011;33105;47.964;7.982;2022-07-23T17:12:56;8.82;;;5.03;;
47365;SDS011;33105;47.964;7.982;2022-07-23T17:15:58;7.03;;;4.78;;
47365;SDS011;33105;47.964;7.982;2022-07-23T17:19:00;9.00;;;5.15;;
47365;SDS011;33105;47.964;7.982;2022-07-23T17:22:01;7.40;;;5.22;;
47365;SDS011;33105;47.964;7.982;2022-07-23T17:25:03;7.15;;;5.32;;
47365;SDS011;33105;47.964;7.982;2022-07-23T17:28:12;9.40;;;5.88;;
47365;SDS011;33105;47.964;7.982;2022-07-23T17:31:14;8.20;;;6.22;;
47365;SDS011;33105;47.964;7.982;2022-07-23T17:34:15;8.52;;;5.30;;
47365;SDS011;33105;47.964;7.982;2022-07-23T17:37:16;6.30;;;5.30;;
47365;SDS011;33105;47.964;7.982;2022-07-23T17:40:17;7.35;;;5.47;;
47365;SDS011;33105;47.964;7.982;2022-07-23T17:43:19;7.50;;;5.30;;
47365;SDS011;33105;47.964;7.982;2022-07-23T17:46:20;5.57;;;4.95;;
47365;SDS011;33105;47.964;7.982;2022-07-23T17:49:22;9.57;;;5.05;;
47365;SDS011;33105;47.964;7.982;2022-07-23T17:52:24;10.20;;;5.15;;
47365;SDS011;33105;47.964;7.982;2022-07-23T17:55:25;12.70;;;5.30;;
47365;SDS011;33105;47.964;7.982;2022-07-23T17:58:27;6.57;;;5.15;;
47365;SDS011;33105;47.964;7.982;2022-07-23T18:01:28;7.78;;;5.28;;
47365;SDS011;33105;47.964;7.982;2022-07-23T18:04:30;6.40;;;5.65;;
47365;SDS011;33105;47.964;7.982;2022-07-23T18:07:31;6.50;;;5.13;;
47365;SDS011;33105;47.964;7.982;2022-07-23T18:10:33;7.95;;;5.38;;
47365;SDS011;33105;47.964;7.982;2022-07-23T18:13:35;7.18;;;5.32;;
47365;SDS011;33105;47.964;7.982;2022-07-23T18:16:37;6.00;;;5.35;;
47365;SDS011;33105;47.964;7.982;2022-07-23T18:19:38;5.72;;;5.20;;
47365;SDS011;33105;47.964;7.982;2022-07-23T18:22:40;7.82;;;5.35;;
47365;SDS011;33105;47.964;7.982;2022-07-23T18:25:41;6.63;;;5.72;;
47365;SDS011;33105;47.964;7.982;2022-07-23T18:28:42;7.32;;;5.70;;
47365;SDS011;33105;47.964;7.982;2022-07-23T18:31:43;7.72;;;5.25;;
47365;SDS011;33105;47.964;7.982;2022-07-23T18:34:45;5.90;;;5.28;;
47365;SDS011;33105;47.964;7.982;2022-07-23T18:37:46;5.80;;;5.20;;
47365;SDS011;33105;47.964;7.982;2022-07-23T18:40:47;6.30;;;4.93;;
47365;SDS011;33105;47.964;7.982;2022-07-23T18:43:49;8.20;;;5.22;;